Portada
METAR-TAF:

METAR-TAF

Aeroports :

Rarotonga, Illes Cook

latitud: 21-12S, longitud: 159-49W, altitud: 7 m

Observació

L'informe es va fer fa 56 minuts, a les 03:00 UTC
Vent 6 kt del Nord/Nord-Est
Temperatura 28°C
Humitat 79%
Pressió 1013 hPa
Visibilitat 10 km o més

METAR: NCRG 090300Z AUTO 02006KT 9999 FEW017/// SCT025/// 28/24 Q1013

Hora: 17:56 (03:56 UTC)

Pronòstic

L'informe es va fer fa 4 hores i 46 minuts, a les 23:10 UTC
Pronòstic vàlid del 09 a les 00 UTC al 09 a les 24 UTC
Vent 5 kt del Nord/Nord-Est
Visibilitat 10 km o més
Escasses núvols a una alçada de 1200 ft
Probabilitat 40% :
Temporalment
l' 09 a les 00 UTC al 09 a les 12 UTC
Visibilitat: 5000 m
Cel ennuvolat a una alçada de 1200 ft
Escasses núvols a una alçada de 1500 ft, Cumulonimbus.
tempesta, pluja

TAF: NCRG 082310Z 0900/0924 02005KT 9999 FEW012 PROB40 TEMPO 0900/0912 5000 TSRA BKN012 FEW015CB

Observacions i pronòstics meteorològics de més de 4000 aeroports (METAR i TAF).

Les estacions disponibles són els punts grocs i vermells al mapa.

Posi el ratolí al punt desitjat per veure el nom de l'estació.

Feu clic per veure les observacions i els pronòstics meteorològics.

Per canviar el mapa: feu clic els botons verds amb una creu de color negre per apropar; al botó verd amb un guió per allunyar la imatge; o en les fletxes verdes per a mapes adjacents.


METAR-TAF: